Time;durP1;ratioP1;P1;durP2;ratioP2;P2;SDS_P1;SDS_P2;PMS_P1;PMS_P2;Temp;Humidity;BMP_temperature;BMP_pressure;BME280_temperature;BME280_humidity;BME280_pressure;Samples;Min_cycle;Max_cycle;Signal;HPM_P1;HPM_P2
2021/03/21 00:00:34;;;;;;;5.40;4.03;;;4.50;51.30;;;;;;4957404;28;20535;-83
2021/03/21 00:03:01;;;;;;;6.17;4.70;;;4.50;51.60;;;;;;4966046;28;20451;-83
2021/03/21 00:05:28;;;;;;;7.30;4.67;;;4.50;51.50;;;;;;4955235;29;20462;-83
2021/03/21 00:07:56;;;;;;;6.10;4.33;;;4.60;51.90;;;;;;4940424;29;20503;-83
2021/03/21 00:10:23;;;;;;;5.50;5.00;;;4.60;51.20;;;;;;4937740;29;20457;-83
2021/03/21 00:12:50;;;;;;;9.57;4.80;;;4.50;51.30;;;;;;4941815;29;20551;-82
2021/03/21 00:15:17;;;;;;;5.57;5.10;;;4.50;51.10;;;;;;4962573;28;20445;-83
2021/03/21 00:17:43;;;;;;;5.93;5.07;;;4.50;50.90;;;;;;4964352;28;20475;-82
2021/03/21 00:20:12;;;;;;;6.10;4.43;;;4.50;51.10;;;;;;4957160;28;20514;-83
2021/03/21 00:22:38;;;;;;;5.17;4.50;;;4.50;51.30;;;;;;4956777;29;20858;-84
2021/03/21 00:25:08;;;;;;;4.47;4.00;;;4.50;50.80;;;;;;4945116;29;20461;-83
2021/03/21 00:27:34;;;;;;;5.20;4.70;;;4.60;50.90;;;;;;4936973;29;20483;-83
2021/03/21 00:30:04;;;;;;;5.30;4.30;;;4.60;50.90;;;;;;4945937;29;20445;-83
2021/03/21 00:32:30;;;;;;;6.10;5.50;;;4.50;51.20;;;;;;4940776;29;20488;-82
2021/03/21 00:34:56;;;;;;;6.97;4.27;;;4.60;51.50;;;;;;4960947;29;20466;-82
2021/03/21 00:37:22;;;;;;;4.60;4.17;;;4.60;51.00;;;;;;4959153;29;20461;-82
2021/03/21 00:39:49;;;;;;;5.40;4.20;;;4.60;50.50;;;;;;4959209;29;20542;-82
2021/03/21 00:42:15;;;;;;;4.87;4.40;;;4.60;51.00;;;;;;4958234;29;20425;-82
2021/03/21 00:44:41;;;;;;;7.50;4.40;;;4.60;51.30;;;;;;4965673;29;20449;-83
2021/03/21 00:47:08;;;;;;;5.47;4.23;;;4.60;51.50;;;;;;4968899;28;20448;-82
2021/03/21 00:49:34;;;;;;;5.03;4.53;;;4.50;51.60;;;;;;4957281;28;20448;-83
2021/03/21 00:52:01;;;;;;;5.57;4.77;;;4.60;51.90;;;;;;4944301;29;20869;-83
2021/03/21 00:54:27;;;;;;;9.33;5.00;;;4.60;52.10;;;;;;4937133;29;20981;-82
2021/03/21 00:56:54;;;;;;;5.43;4.90;;;4.70;51.30;;;;;;4936881;29;20456;-83
2021/03/21 00:59:20;;;;;;;5.40;4.90;;;4.70;51.60;;;;;;4936825;29;20977;-83
2021/03/21 01:01:46;;;;;;;7.90;4.90;;;4.70;51.30;;;;;;4950678;29;20965;-82
2021/03/21 01:04:13;;;;;;;4.40;3.90;;;4.70;50.50;;;;;;4976516;28;20460;-82
2021/03/21 01:06:40;;;;;;;7.50;5.60;;;4.70;50.30;;;;;;4972974;28;20453;-82
2021/03/21 01:09:10;;;;;;;4.63;4.07;;;4.70;50.90;;;;;;4978467;28;20456;-82
2021/03/21 01:11:38;;;;;;;6.70;4.40;;;4.60;51.40;;;;;;4969047;28;20469;-83
2021/03/21 01:14:05;;;;;;;5.50;4.40;;;4.60;51.70;;;;;;4952974;29;20451;-83
2021/03/21 01:16:34;;;;;;;4.80;4.20;;;4.60;51.30;;;;;;4946171;29;20460;-82
2021/03/21 01:19:02;;;;;;;6.63;4.60;;;4.70;50.90;;;;;;4939194;29;20476;-83
2021/03/21 01:21:31;;;;;;;6.13;4.70;;;4.60;51.30;;;;;;4945654;29;20452;-82
2021/03/21 01:23:58;;;;;;;4.70;4.20;;;4.60;51.40;;;;;;4956632;28;20449;-83
2021/03/21 01:26:26;;;;;;;6.70;5.07;;;4.60;51.20;;;;;;4956914;28;20826;-83
2021/03/21 01:28:55;;;;;;;4.17;3.60;;;4.60;51.40;;;;;;4956371;28;20490;-82
2021/03/21 01:31:24;;;;;;;6.00;4.77;;;4.60;52.00;;;;;;4950505;29;21012;-82
2021/03/21 01:33:50;;;;;;;6.10;4.97;;;4.50;51.70;;;;;;4942823;29;20972;-83
2021/03/21 01:36:19;;;;;;;5.13;3.90;;;4.60;51.80;;;;;;4939487;29;20456;-82
2021/03/21 01:38:46;;;;;;;6.17;4.77;;;4.60;52.30;;;;;;4958595;29;20462;-82
2021/03/21 01:41:15;;;;;;;4.97;3.90;;;4.60;52.00;;;;;;4958418;29;20462;-82
2021/03/21 01:43:42;;;;;;;4.93;4.33;;;4.70;51.60;;;;;;4950759;29;20476;-82
2021/03/21 01:46:14;;;;;;;5.20;4.40;;;4.70;51.50;;;;;;4951984;29;20548;-82
2021/03/21 01:48:45;;;;;;;8.13;4.70;;;4.70;51.80;;;;;;4942532;29;20470;-82
2021/03/21 01:51:15;;;;;;;5.83;5.20;;;4.60;52.00;;;;;;4955273;28;20487;-83
2021/03/21 01:53:49;;;;;;;4.20;3.80;;;4.60;52.60;;;;;;4964822;28;20464;-89
2021/03/21 01:56:15;;;;;;;4.30;3.87;;;4.60;52.40;;;;;;4968148;28;20812;-88
2021/03/21 01:58:45;;;;;;;4.10;3.80;;;4.70;52.80;;;;;;4950504;28;20475;-88
2021/03/21 02:01:15;;;;;;;5.53;4.17;;;4.70;52.60;;;;;;4948091;28;20463;-86
2021/03/21 02:03:42;;;;;;;6.97;4.50;;;4.70;52.40;;;;;;4955121;28;20475;-87
2021/03/21 02:06:29;;;;;;;7.27;4.43;;;4.60;52.80;;;;;;4955658;28;21133;-85
2021/03/21 02:08:59;;;;;;;4.80;4.07;;;4.70;52.40;;;;;;4970428;28;20477;-81
2021/03/21 02:11:34;;;;;;;4.57;4.10;;;4.70;52.10;;;;;;4951482;29;20495;-81
2021/03/21 02:14:07;;;;;;;6.83;4.53;;;4.70;52.60;;;;;;4947493;29;20449;-82
2021/03/21 02:16:38;;;;;;;4.43;4.03;;;4.60;52.70;;;;;;4940326;29;20448;-82
2021/03/21 02:19:14;;;;;;;8.53;4.43;;;4.60;53.10;;;;;;4946237;28;20951;-82
2021/03/21 02:21:45;;;;;;;8.00;4.30;;;4.60;53.60;;;;;;4958417;28;20517;-82
2021/03/21 02:24:50;;;;;;;6.67;4.50;;;4.60;53.70;;;;;;4958205;28;20462;-82
2021/03/21 02:27:50;;;;;;;5.13;4.63;;;4.60;53.30;;;;;;4957313;29;20480;-82
2021/03/21 02:30:23;;;;;;;4.67;4.17;;;4.60;53.60;;;;;;4891000;29;20449;-82
2021/03/21 02:32:55;;;;;;;4.70;4.30;;;4.60;53.40;;;;;;4938661;29;20557;-82
2021/03/21 02:35:26;;;;;;;7.70;4.10;;;4.60;53.60;;;;;;4938591;29;20464;-82
2021/03/21 02:38:00;;;;;;;6.97;4.07;;;4.70;52.20;;;;;;4938584;29;20952;-82
2021/03/21 02:40:34;;;;;;;5.73;4.17;;;4.70;51.90;;;;;;4956390;28;20454;-82
2021/03/21 02:43:06;;;;;;;6.10;4.60;;;4.60;52.00;;;;;;4955590;28;20482;-82
2021/03/21 02:45:37;;;;;;;5.00;4.13;;;4.60;52.20;;;;;;4957968;28;20460;-82
2021/03/21 02:48:09;;;;;;;4.97;4.30;;;4.60;52.20;;;;;;4959442;28;20522;-82
2021/03/21 02:50:39;;;;;;;5.37;4.43;;;4.60;52.10;;;;;;4945872;29;20473;-83
2021/03/21 02:53:12;;;;;;;5.70;3.40;;;4.60;52.30;;;;;;4941716;29;20495;-82
2021/03/21 02:55:43;;;;;;;6.27;4.70;;;4.70;52.20;;;;;;4951240;29;20454;-82
2021/03/21 02:58:13;;;;;;;8.50;4.67;;;4.60;52.90;;;;;;4970125;28;20443;-82
2021/03/21 03:00:46;;;;;;;9.27;4.63;;;4.60;54.10;;;;;;4961947;28;20522;-82
2021/03/21 03:03:17;;;;;;;6.43;4.50;;;4.70;52.90;;;;;;4966323;28;20449;-82
2021/03/21 03:05:45;;;;;;;4.93;4.15;;;4.60;52.50;;;;;;4966084;28;20213;-82
2021/03/21 03:08:14;;;;;;;4.43;4.00;;;4.60;52.80;;;;;;4949158;29;20233;-82
2021/03/21 03:10:47;;;;;;;6.67;4.50;;;4.70;53.10;;;;;;4939705;29;20447;-82
2021/03/21 03:13:17;;;;;;;7.03;5.90;;;4.70;52.50;;;;;;4954803;29;20477;-82
2021/03/21 03:15:45;;;;;;;6.13;4.20;;;4.70;53.00;;;;;;4956833;29;20476;-82
2021/03/21 03:18:26;;;;;;;5.30;4.60;;;4.60;53.20;;;;;;4958656;29;20487;-81
2021/03/21 03:21:00;;;;;;;6.17;3.90;;;4.60;52.50;;;;;;4960828;29;20483;-82
2021/03/21 03:23:31;;;;;;;4.93;4.40;;;4.60;52.10;;;;;;4960734;29;20436;-82
2021/03/21 03:26:02;;;;;;;4.70;3.77;;;4.60;53.00;;;;;;4958800;29;20527;-82
2021/03/21 03:28:42;;;;;;;4.20;3.77;;;4.60;53.10;;;;;;4970512;29;20475;-81
2021/03/21 03:31:15;;;;;;;6.10;3.87;;;4.50;52.80;;;;;;4969360;28;20456;-82
2021/03/21 03:33:42;;;;;;;4.33;3.80;;;4.50;52.60;;;;;;4974717;29;20448;-82
2021/03/21 03:36:12;;;;;;;5.50;4.10;;;4.60;52.80;;;;;;4956694;28;20465;-82
2021/03/21 03:38:39;;;;;;;4.67;3.63;;;4.60;52.30;;;;;;4940940;29;20481;-82
2021/03/21 03:41:09;;;;;;;5.90;4.20;;;4.60;52.90;;;;;;4939327;29;20456;-83
2021/03/21 03:43:47;;;;;;;5.40;4.13;;;4.60;53.00;;;;;;4940293;29;20479;-83
2021/03/21 03:46:19;;;;;;;5.30;4.80;;;4.50;53.40;;;;;;4945447;29;20458;-82
2021/03/21 03:48:59;;;;;;;4.53;3.97;;;4.60;53.00;;;;;;4976402;28;20460;-83
2021/03/21 03:51:31;;;;;;;6.43;4.40;;;4.60;52.70;;;;;;4958193;28;20899;-83
2021/03/21 03:54:15;;;;;;;6.40;4.20;;;4.50;52.90;;;;;;4966149;28;20439;-82
2021/03/21 03:56:49;;;;;;;4.33;3.83;;;4.50;53.20;;;;;;4955476;28;20448;-82
2021/03/21 03:59:31;;;;;;;5.00;4.43;;;4.60;52.70;;;;;;4944555;29;20497;-82
2021/03/21 04:02:05;;;;;;;6.53;4.03;;;4.60;52.60;;;;;;4951726;29;20452;-83
2021/03/21 04:04:40;;;;;;;5.10;4.60;;;4.70;52.70;;;;;;4956786;28;20955;-82
2021/03/21 04:07:16;;;;;;;5.13;4.63;;;4.60;52.30;;;;;;4942019;29;20463;-82
2021/03/21 04:09:49;;;;;;;6.07;4.80;;;4.50;52.90;;;;;;4936595;29;20823;-83
2021/03/21 04:12:19;;;;;;;5.70;4.30;;;4.50;54.10;;;;;;4936548;29;20495;-83
2021/03/21 04:14:48;;;;;;;6.03;4.70;;;4.50;54.00;;;;;;4936697;29;20509;-82
2021/03/21 04:17:19;;;;;;;6.40;4.80;;;4.50;54.50;;;;;;4950265;29;20943;-82
2021/03/21 04:19:53;;;;;;;4.67;3.73;;;4.50;54.50;;;;;;4961646;28;20520;-82
2021/03/21 04:22:24;;;;;;;6.80;4.40;;;4.50;54.60;;;;;;4977768;28;20442;-82
2021/03/21 04:24:54;;;;;;;4.43;4.00;;;4.50;54.70;;;;;;4967900;28;20832;-82
2021/03/21 04:29:56;;;;;;;4.87;3.87;;;4.50;54.60;;;;;;4955624;29;20473;-84
2021/03/21 04:32:29;;;;;;;4.70;4.10;;;4.50;55.00;;;;;;4958581;29;20564;-84
2021/03/21 04:35:00;;;;;;;7.10;4.10;;;4.50;54.80;;;;;;4950490;29;20461;-86
2021/03/21 04:37:29;;;;;;;6.30;3.83;;;4.50;54.40;;;;;;4939435;29;20846;-86
2021/03/21 04:39:56;;;;;;;7.97;3.90;;;4.60;54.70;;;;;;4918808;29;20462;-86
2021/03/21 04:42:28;;;;;;;4.67;4.20;;;4.60;54.80;;;;;;4918375;29;20871;-85
2021/03/21 04:44:59;;;;;;;4.63;3.97;;;4.60;54.70;;;;;;4918538;29;20457;-85
2021/03/21 04:47:29;;;;;;;5.18;4.35;;;4.60;54.80;;;;;;4920845;29;20436;-86
2021/03/21 04:49:57;;;;;;;5.57;3.90;;;4.60;54.80;;;;;;4918241;29;20201;-86
2021/03/21 04:52:35;;;;;;;6.53;4.23;;;4.50;55.20;;;;;;4918553;29;20486;-86
2021/03/21 04:55:03;;;;;;;4.85;4.03;;;4.50;55.50;;;;;;4918640;29;20541;-85
2021/03/21 04:57:35;;;;;;;6.15;4.88;;;4.50;55.30;;;;;;4930431;29;20207;-86
2021/03/21 05:00:03;;;;;;;4.93;4.37;;;4.50;55.60;;;;;;4937664;29;20248;-86
2021/03/21 05:02:32;;;;;;;5.83;4.37;;;4.50;55.80;;;;;;4937735;29;20465;-86
2021/03/21 05:05:06;;;;;;;7.27;4.53;;;4.40;55.30;;;;;;4931732;29;20963;-85
2021/03/21 05:07:40;;;;;;;4.90;4.10;;;4.40;55.70;;;;;;4918616;29;20483;-86
2021/03/21 05:10:13;;;;;;;5.23;4.20;;;4.50;56.30;;;;;;4917647;29;20245;-86
2021/03/21 05:12:43;;;;;;;5.10;4.00;;;4.50;56.00;;;;;;4918139;29;20493;-86
2021/03/21 05:15:19;;;;;;;4.73;4.27;;;4.50;55.70;;;;;;4926003;29;20460;-86
2021/03/21 05:17:59;;;;;;;5.37;4.20;;;4.50;55.70;;;;;;4937225;29;20538;-85
2021/03/21 05:20:34;;;;;;;4.95;3.70;;;4.50;55.70;;;;;;4936956;29;20462;-85
2021/03/21 05:23:17;;;;;;;5.10;3.80;;;4.50;55.30;;;;;;4917573;29;20211;-87
2021/03/21 05:25:47;;;;;;;4.50;4.10;;;4.50;55.70;;;;;;4924508;29;20452;-86
2021/03/21 05:28:21;;;;;;;5.37;4.00;;;4.60;55.80;;;;;;4951489;29;20233;-83
2021/03/21 05:30:47;;;;;;;4.90;4.40;;;4.60;55.70;;;;;;4944967;29;20452;-84
2021/03/21 05:33:15;;;;;;;6.70;4.10;;;4.50;56.00;;;;;;4937344;29;20485;-85
2021/03/21 05:35:41;;;;;;;8.40;4.60;;;4.50;56.20;;;;;;4940368;29;20450;-85
2021/03/21 05:38:23;;;;;;;6.57;4.77;;;4.60;56.60;;;;;;4938131;29;20473;-85
2021/03/21 05:41:24;;;;;;;5.20;4.70;;;4.60;57.10;;;;;;4939087;29;20453;-86
2021/03/21 05:44:18;;;;;;;6.30;4.50;;;4.60;57.30;;;;;;4938496;29;20414;-86
2021/03/21 05:47:07;;;;;;;5.37;3.87;;;4.60;57.40;;;;;;4935443;29;20590;-86
2021/03/21 05:50:16;;;;;;;4.83;4.33;;;4.60;57.10;;;;;;4930697;29;20478;-86
2021/03/21 05:53:03;;;;;;;6.07;5.33;;;4.60;56.80;;;;;;4897933;29;20493;-85
2021/03/21 05:55:50;;;;;;;5.07;4.30;;;4.60;57.00;;;;;;4922202;29;20438;-86
2021/03/21 05:58:38;;;;;;;4.43;3.70;;;4.60;56.90;;;;;;4927575;29;20524;-86
2021/03/21 06:01:31;;;;;;;4.68;3.83;;;4.60;57.30;;;;;;4940762;29;20467;-85
2021/03/21 06:04:24;;;;;;;7.00;3.47;;;4.60;57.40;;;;;;4939153;29;20213;-85
2021/03/21 06:07:21;;;;;;;4.30;3.97;;;4.60;57.70;;;;;;4940455;29;20458;-86
2021/03/21 06:10:04;;;;;;;4.83;4.10;;;4.60;58.10;;;;;;4933139;29;20457;-84
2021/03/21 06:12:49;;;;;;;6.10;4.63;;;4.70;57.90;;;;;;4925233;29;20991;-85
2021/03/21 06:16:01;;;;;;;5.78;5.28;;;4.70;58.00;;;;;;4920938;29;20465;-85
2021/03/21 06:18:42;;;;;;;5.40;3.87;;;4.60;57.80;;;;;;4920826;29;20257;-85
2021/03/21 06:21:59;;;;;;;5.22;3.92;;;4.70;57.60;;;;;;4931926;29;20457;-84
2021/03/21 06:24:37;;;;;;;6.27;4.60;;;4.70;57.70;;;;;;4922197;29;20208;-86
2021/03/21 06:27:18;;;;;;;5.80;3.90;;;4.80;58.30;;;;;;4920881;29;20450;-85
2021/03/21 06:30:21;;;;;;;5.23;4.27;;;4.80;58.40;;;;;;4920076;29;20453;-86
2021/03/21 06:33:11;;;;;;;8.67;4.93;;;4.80;58.20;;;;;;4920200;29;20583;-86
2021/03/21 06:36:06;;;;;;;7.27;4.37;;;4.80;58.20;;;;;;4927063;29;20448;-85
2021/03/21 06:38:49;;;;;;;4.40;3.77;;;4.80;58.40;;;;;;4938963;29;20469;-84
2021/03/21 06:41:39;;;;;;;5.77;3.83;;;4.80;58.30;;;;;;4957827;29;20458;-86
2021/03/21 06:44:25;;;;;;;5.40;3.73;;;4.80;58.50;;;;;;4947395;29;20483;-86
2021/03/21 06:47:21;;;;;;;5.77;4.00;;;4.80;58.30;;;;;;4943116;29;20451;-85
2021/03/21 06:50:09;;;;;;;4.30;3.93;;;4.90;58.20;;;;;;4943101;29;20443;-86
2021/03/21 06:52:43;;;;;;;4.80;4.23;;;4.90;58.40;;;;;;4941804;29;20495;-85
2021/03/21 06:55:13;;;;;;;5.07;4.57;;;4.90;58.70;;;;;;4943287;29;20460;-84
2021/03/21 06:58:19;;;;;;;8.70;4.40;;;5.00;59.10;;;;;;4941460;29;20467;-86
2021/03/21 07:01:15;;;;;;;5.90;4.30;;;5.00;59.00;;;;;;4941129;29;20957;-86
2021/03/21 07:04:30;;;;;;;4.50;3.90;;;5.00;59.10;;;;;;4933894;29;20547;-85
2021/03/21 07:07:57;;;;;;;5.37;4.77;;;5.00;59.00;;;;;;4942930;29;20452;-85
2021/03/21 07:11:18;;;;;;;5.30;4.30;;;5.00;59.10;;;;;;4943537;29;20507;-85
2021/03/21 07:14:27;;;;;;;5.70;4.70;;;5.10;58.90;;;;;;4940497;29;20558;-86
2021/03/21 07:17:18;;;;;;;5.70;4.60;;;5.10;58.60;;;;;;4941318;29;20450;-86
2021/03/21 07:20:24;;;;;;;4.20;3.80;;;5.10;59.00;;;;;;4940061;29;20450;-86
2021/03/21 07:23:34;;;;;;;6.30;5.40;;;5.10;59.10;;;;;;4942092;29;20521;-84
2021/03/21 07:26:27;;;;;;;6.03;5.17;;;5.20;59.20;;;;;;4906574;29;20457;-85
2021/03/21 07:29:24;;;;;;;5.97;4.43;;;5.20;58.80;;;;;;4925346;29;20495;-84
2021/03/21 07:32:04;;;;;;;4.70;3.73;;;5.20;58.90;;;;;;4938944;29;20560;-85
2021/03/21 07:34:58;;;;;;;7.10;4.07;;;5.30;58.40;;;;;;4939932;29;20465;-84
2021/03/21 07:37:35;;;;;;;5.50;4.20;;;5.30;58.50;;;;;;4923965;29;20514;-85
2021/03/21 07:40:21;;;;;;;5.17;4.30;;;5.30;58.80;;;;;;4937481;29;20455;-85
2021/03/21 07:43:13;;;;;;;4.43;4.03;;;5.30;58.60;;;;;;4923225;29;20852;-86
2021/03/21 07:45:58;;;;;;;5.60;4.00;;;5.30;59.00;;;;;;4925906;29;20462;-84
2021/03/21 07:48:44;;;;;;;5.17;4.67;;;5.30;58.50;;;;;;4940852;29;20466;-84
2021/03/21 07:51:19;;;;;;;6.30;4.10;;;5.30;58.80;;;;;;4929237;29;20434;-85
2021/03/21 07:53:55;;;;;;;5.57;5.03;;;5.40;59.30;;;;;;4924553;29;20485;-84
2021/03/21 07:56:28;;;;;;;6.73;4.73;;;5.40;59.20;;;;;;4932202;29;20462;-86
2021/03/21 07:58:58;;;;;;;7.73;4.57;;;5.40;58.90;;;;;;4939451;29;20474;-86
2021/03/21 08:01:25;;;;;;;5.47;4.97;;;5.50;59.00;;;;;;4939750;29;20469;-86
2021/03/21 08:04:00;;;;;;;5.27;4.37;;;5.50;58.80;;;;;;4956053;29;20445;-85
2021/03/21 08:06:31;;;;;;;5.33;4.90;;;5.50;58.70;;;;;;4956650;29;20484;-86
2021/03/21 08:09:05;;;;;;;4.50;4.10;;;5.60;58.20;;;;;;4944871;29;20484;-86
2021/03/21 08:11:35;;;;;;;8.20;5.40;;;5.60;58.40;;;;;;4923532;29;20951;-86
2021/03/21 08:14:15;;;;;;;7.10;4.23;;;5.60;58.70;;;;;;4919883;29;20459;-86
2021/03/21 08:16:46;;;;;;;7.77;4.10;;;5.70;58.40;;;;;;4921393;29;20450;-86
2021/03/21 08:19:20;;;;;;;5.47;4.80;;;5.70;58.50;;;;;;4921046;29;20474;-86
2021/03/21 08:21:50;;;;;;;7.10;4.70;;;5.80;58.30;;;;;;4922187;29;20466;-86
2021/03/21 08:24:22;;;;;;;5.30;4.53;;;5.80;58.50;;;;;;4922207;29;20607;-86
2021/03/21 08:26:49;;;;;;;5.00;4.10;;;5.80;58.70;;;;;;4932839;29;20458;-87
2021/03/21 08:29:18;;;;;;;4.97;4.30;;;5.90;58.40;;;;;;4948175;29;20947;-86
2021/03/21 08:32:01;;;;;;;5.33;3.90;;;6.00;58.50;;;;;;4940321;29;20516;-86
2021/03/21 08:37:40;;;;;;;5.50;5.00;;;6.30;57.40;;;;;;4914403;29;20498;-86
2021/03/21 08:40:18;;;;;;;4.93;4.53;;;6.50;57.30;;;;;;4922197;29;20450;-86
2021/03/21 08:42:47;;;;;;;5.50;4.83;;;6.60;55.90;;;;;;4929893;29;20454;-86
2021/03/21 08:45:33;;;;;;;6.67;4.90;;;6.60;56.00;;;;;;4947805;28;20504;-86
2021/03/21 08:48:05;;;;;;;9.73;5.27;;;6.40;55.90;;;;;;4952666;28;20493;-86
2021/03/21 08:50:39;;;;;;;6.63;4.40;;;6.30;56.20;;;;;;4956876;28;20429;-85
2021/03/21 08:53:21;;;;;;;5.73;4.00;;;6.30;56.90;;;;;;4955734;28;20497;-86
2021/03/21 08:55:48;;;;;;;5.23;4.37;;;6.30;56.40;;;;;;4979647;28;20444;-85
2021/03/21 08:58:22;;;;;;;6.33;4.57;;;6.30;56.30;;;;;;4970884;28;20475;-85
2021/03/21 09:00:54;;;;;;;5.53;4.50;;;6.40;56.90;;;;;;4948170;28;20437;-86
2021/03/21 09:03:30;;;;;;;6.80;5.10;;;6.40;57.00;;;;;;4955396;28;20435;-85
2021/03/21 09:05:58;;;;;;;6.87;4.77;;;6.50;56.10;;;;;;4960504;28;20446;-86
2021/03/21 09:08:28;;;;;;;7.90;4.80;;;6.40;56.40;;;;;;4937291;29;20504;-86
2021/03/21 09:11:13;;;;;;;6.37;4.80;;;6.30;56.20;;;;;;4942896;29;20425;-84
2021/03/21 09:13:39;;;;;;;5.13;4.57;;;6.30;56.10;;;;;;4959777;28;20473;-83
2021/03/21 09:16:08;;;;;;;5.70;4.97;;;6.40;56.50;;;;;;4953287;28;20467;-83
2021/03/21 09:18:37;;;;;;;6.03;4.60;;;6.40;56.60;;;;;;4947659;29;20479;-83
2021/03/21 09:21:19;;;;;;;5.37;4.50;;;6.50;56.50;;;;;;4949536;29;20535;-86
2021/03/21 09:23:56;;;;;;;6.67;5.00;;;6.50;56.50;;;;;;4944262;29;20575;-86
2021/03/21 09:26:39;;;;;;;8.57;4.87;;;6.60;56.50;;;;;;4948355;29;20436;-84
2021/03/21 09:29:27;;;;;;;5.70;4.63;;;6.70;57.10;;;;;;4943211;29;20477;-85
2021/03/21 09:31:59;;;;;;;9.77;4.90;;;6.70;56.80;;;;;;4943229;29;20485;-85
2021/03/21 09:34:38;;;;;;;6.23;5.03;;;6.70;56.70;;;;;;4944787;29;20535;-85
2021/03/21 09:37:11;;;;;;;7.40;6.70;;;6.60;56.30;;;;;;4946754;29;20492;-85
2021/03/21 09:39:49;;;;;;;7.07;4.70;;;6.50;56.60;;;;;;4945953;29;20485;-85
2021/03/21 09:42:18;;;;;;;6.97;5.57;;;6.60;57.10;;;;;;4952687;29;20460;-85
2021/03/21 09:44:49;;;;;;;7.20;5.40;;;6.70;57.60;;;;;;4950089;29;20541;-86
2021/03/21 09:47:35;;;;;;;5.77;4.83;;;6.80;57.00;;;;;;4944226;29;20449;-84
2021/03/21 09:50:38;;;;;;;5.50;5.00;;;6.90;56.40;;;;;;4947749;29;20505;-85
2021/03/21 09:53:25;;;;;;;6.13;5.37;;;6.80;56.80;;;;;;4959137;29;20457;-85
2021/03/21 09:55:54;;;;;;;9.43;5.00;;;6.80;57.10;;;;;;4946575;29;20453;-85
2021/03/21 09:58:33;;;;;;;5.83;5.23;;;7.00;57.20;;;;;;4940089;29;20470;-85
2021/03/21 10:01:04;;;;;;;5.10;4.13;;;7.10;57.10;;;;;;4923000;29;20454;-85
2021/03/21 10:03:34;;;;;;;6.47;5.33;;;7.20;56.90;;;;;;4919084;29;20450;-85
2021/03/21 10:06:06;;;;;;;6.63;5.83;;;7.40;56.80;;;;;;4920199;29;20467;-86
2021/03/21 10:08:57;;;;;;;5.63;5.00;;;7.50;56.50;;;;;;4925154;29;20496;-85
2021/03/21 10:12:08;;;;;;;7.37;6.60;;;7.70;56.50;;;;;;4937808;28;20450;-84
2021/03/21 10:14:57;;;;;;;8.20;6.73;;;7.70;56.60;;;;;;4938206;29;20438;-86
2021/03/21 10:17:50;;;;;;;7.50;6.00;;;7.80;56.20;;;;;;4937548;29;20441;-85
2021/03/21 10:20:19;;;;;;;9.37;7.10;;;8.00;56.30;;;;;;4937611;29;20455;-86
2021/03/21 10:22:57;;;;;;;7.20;6.50;;;8.20;56.40;;;;;;4937113;29;20433;-86
2021/03/21 10:25:51;;;;;;;6.90;5.33;;;8.20;56.70;;;;;;4934120;29;20462;-85
2021/03/21 10:28:47;;;;;;;6.83;5.70;;;8.30;57.40;;;;;;4939354;29;20910;-86
2021/03/21 10:31:30;;;;;;;6.10;5.50;;;8.30;58.10;;;;;;4941061;29;20583;-86
2021/03/21 10:34:38;;;;;;;7.70;6.27;;;8.20;59.60;;;;;;4941633;29;20556;-85
2021/03/21 10:37:04;;;;;;;7.30;5.60;;;8.40;60.50;;;;;;4941651;29;20442;-86
2021/03/21 10:40:04;;;;;;;6.20;5.60;;;8.50;60.50;;;;;;4942986;29;20473;-85
2021/03/21 10:42:58;;;;;;;5.80;5.20;;;8.50;60.90;;;;;;4947884;29;20446;-86
2021/03/21 10:45:53;;;;;;;7.20;6.17;;;8.60;61.20;;;;;;4957266;29;20446;-86
2021/03/21 10:48:54;;;;;;;5.63;5.03;;;8.70;59.70;;;;;;4904648;29;20478;-86
2021/03/21 10:51:23;;;;;;;5.70;5.20;;;8.50;62.20;;;;;;4950484;29;20485;-86
2021/03/21 10:54:28;;;;;;;8.20;7.07;;;8.20;65.50;;;;;;4952110;29;20474;-85
2021/03/21 10:57:35;;;;;;;6.50;5.80;;;8.10;67.90;;;;;;4945176;29;20450;-86
2021/03/21 11:00:11;;;;;;;7.70;6.43;;;8.10;68.30;;;;;;4943258;29;20434;-85
2021/03/21 11:02:50;;;;;;;9.10;6.47;;;8.00;70.00;;;;;;4950620;29;20441;-86
2021/03/21 11:05:31;;;;;;;6.33;5.60;;;8.10;70.90;;;;;;4940187;29;20445;-85
2021/03/21 11:08:08;;;;;;;8.00;6.67;;;8.10;71.70;;;;;;4940630;29;20464;-85
2021/03/21 11:10:49;;;;;;;8.70;7.63;;;8.20;72.10;;;;;;4951695;29;20414;-86
2021/03/21 11:16:47;;;;;;;9.37;7.70;;;8.50;71.40;;;;;;4950313;29;20430;-86
2021/03/21 11:19:20;;;;;;;8.90;8.00;;;8.80;71.30;;;;;;4946918;29;20469;-86
2021/03/21 11:21:54;;;;;;;8.13;7.33;;;9.00;70.90;;;;;;4936966;29;20442;-86
2021/03/21 11:24:45;;;;;;;10.67;9.43;;;9.00;69.50;;;;;;4942119;29;20446;-86
2021/03/21 11:30:28;;;;;;;11.37;7.90;;;8.90;65.80;;;;;;4923901;29;20512;-86
2021/03/21 11:33:15;;;;;;;9.60;8.60;;;8.70;64.90;;;;;;4940241;29;20481;-84
2021/03/21 11:35:45;;;;;;;14.00;10.80;;;8.70;64.50;;;;;;4938693;29;20866;-85
2021/03/21 11:38:49;;;;;;;;;;;;;;;;;;;;;
2021/03/21 11:41:30;;;;;;;6.83;6.10;;;8.60;62.30;;;;;;4941685;29;20446;-87
2021/03/21 11:44:29;;;;;;;7.20;6.33;;;8.70;62.10;;;;;;4940564;29;20526;-88
2021/03/21 11:47:20;;;;;;;8.20;6.30;;;8.70;61.50;;;;;;4942729;29;20453;-88
2021/03/21 11:50:09;;;;;;;8.57;7.77;;;8.70;61.60;;;;;;4950686;29;20497;-89
2021/03/21 11:56:18;;;;;;;8.27;7.33;;;8.70;62.00;;;;;;4907139;29;20470;-87
2021/03/21 12:02:03;;;;;;;14.00;8.77;;;8.70;62.00;;;;;;4945598;29;20457;-88
2021/03/21 12:04:38;;;;;;;10.67;8.27;;;8.60;62.30;;;;;;4943476;29;20450;-88
2021/03/21 12:07:26;;;;;;;10.70;6.93;;;8.60;62.60;;;;;;4943252;29;20461;-89
2021/03/21 12:10:01;;;;;;;7.80;7.10;;;8.60;63.30;;;;;;4954522;29;20442;-88
2021/03/21 12:12:39;;;;;;;7.40;6.70;;;8.60;64.40;;;;;;4940852;29;20478;-88
2021/03/21 12:15:56;;;;;;;8.57;7.40;;;8.50;65.20;;;;;;4938023;29;20478;-89
2021/03/21 12:21:37;;;;;;;6.53;5.93;;;8.50;67.30;;;;;;4936535;29;20532;-85
2021/03/21 12:24:08;;;;;;;5.90;5.30;;;8.50;69.00;;;;;;4945288;29;20445;-85
2021/03/21 12:27:13;;;;;;;7.27;6.07;;;8.40;70.20;;;;;;4940168;29;20497;-90
2021/03/21 12:37:02;;;;;;;10.23;6.90;;;8.90;71.40;;;;;;4855395;29;20445;-86
2021/03/21 12:39:49;;;;;;;6.77;5.57;;;9.10;71.40;;;;;;4926313;29;20496;-87
2021/03/21 12:42:36;;;;;;;6.20;4.77;;;9.10;72.30;;;;;;4940505;29;20810;-85
2021/03/21 12:45:19;;;;;;;6.00;5.50;;;9.10;73.40;;;;;;4940760;29;20445;-87
2021/03/21 12:47:47;;;;;;;5.83;5.17;;;9.30;73.90;;;;;;4940100;29;21017;-85
2021/03/21 12:50:49;;;;;;;6.70;5.90;;;9.30;73.80;;;;;;4938718;29;20442;-85
2021/03/21 12:56:30;;;;;;;6.60;5.97;;;9.50;73.90;;;;;;4918414;29;20463;-85
2021/03/21 13:08:55;;;;;;;11.27;7.80;;;9.80;74.50;;;;;;4881311;29;20475;-85
2021/03/21 13:11:45;;;;;;;12.33;8.27;;;9.90;74.80;;;;;;4883198;29;20445;-85
2021/03/21 13:17:39;;;;;;;11.20;8.30;;;10.30;73.80;;;;;;4876059;29;20463;-86
2021/03/21 13:20:49;;;;;;;10.37;8.07;;;10.40;73.20;;;;;;4947954;29;20538;-85
2021/03/21 13:23:52;;;;;;;9.90;7.70;;;10.10;72.90;;;;;;4946131;29;20446;-87
2021/03/21 13:26:48;;;;;;;11.43;9.50;;;9.70;76.10;;;;;;4912124;29;20460;-89
2021/03/21 13:32:09;;;;;;;6.77;6.13;;;9.70;76.90;;;;;;4948243;29;20442;-89
2021/03/21 13:34:51;;;;;;;7.00;6.30;;;9.70;77.10;;;;;;4942401;29;20513;-89
2021/03/21 13:37:21;;;;;;;7.63;6.30;;;9.70;76.90;;;;;;4941783;29;20438;-91
2021/03/21 13:39:54;;;;;;;7.30;6.60;;;9.70;76.80;;;;;;4940357;29;20446;-88
2021/03/21 13:42:32;;;;;;;6.30;5.70;;;9.60;76.90;;;;;;4938021;29;20541;-86
2021/03/21 13:45:00;;;;;;;6.57;5.97;;;9.70;77.20;;;;;;4938828;29;20481;-88
2021/03/21 13:47:31;;;;;;;7.90;6.67;;;9.60;76.80;;;;;;4939953;29;20513;-89
2021/03/21 13:59:55;;;;;;;7.67;6.90;;;9.50;77.90;;;;;;4937482;29;20493;-89
2021/03/21 14:02:41;;;;;;;7.57;6.80;;;9.60;78.10;;;;;;4945244;29;20513;-88
2021/03/21 14:12:33;;;;;;;8.20;7.33;;;9.20;79.80;;;;;;4952185;29;20465;-87
2021/03/21 14:15:06;;;;;;;9.17;7.30;;;9.20;80.10;;;;;;4918011;28;20442;-86
2021/03/21 14:17:45;;;;;;;9.13;8.10;;;9.00;80.50;;;;;;4943914;29;20831;-86
2021/03/21 14:20:36;;;;;;;9.93;7.80;;;9.00;81.20;;;;;;4946071;29;20441;-87
2021/03/21 14:23:25;;;;;;;8.47;6.80;;;8.80;81.90;;;;;;4944102;29;20446;-88
2021/03/21 14:26:09;;;;;;;7.30;6.60;;;8.80;82.40;;;;;;4943309;29;20434;-88
2021/03/21 14:28:47;;;;;;;8.40;7.50;;;8.70;82.50;;;;;;4942806;29;20477;-89
2021/03/21 14:31:45;;;;;;;7.97;7.17;;;8.80;82.50;;;;;;4947697;29;21194;-88
2021/03/21 14:34:16;;;;;;;8.17;7.37;;;9.00;82.60;;;;;;4913226;29;20770;-88
2021/03/21 14:36:58;;;;;;;8.67;7.87;;;9.10;82.00;;;;;;4947951;29;20510;-87
2021/03/21 14:43:12;;;;;;;8.10;7.27;;;8.90;81.60;;;;;;4899257;29;20431;-91
2021/03/21 14:45:57;;;;;;;10.83;8.90;;;9.00;82.60;;;;;;4900758;29;20524;-87
2021/03/21 14:48:34;;;;;;;11.03;9.87;;;9.00;81.80;;;;;;4945130;29;20542;-88
2021/03/21 14:51:04;;;;;;;12.60;11.20;;;9.30;81.30;;;;;;4951915;29;20510;-87
2021/03/21 14:53:41;;;;;;;10.77;8.97;;;9.40;80.80;;;;;;4959045;29;20470;-88
2021/03/21 14:56:10;;;;;;;7.77;7.03;;;9.50;80.60;;;;;;4961590;29;20448;-90
2021/03/21 14:59:13;;;;;;;8.17;7.40;;;9.60;80.10;;;;;;4961492;29;20462;-90
2021/03/21 15:01:45;;;;;;;9.30;8.40;;;9.70;79.90;;;;;;4943285;28;20430;-87
2021/03/21 15:04:12;;;;;;;8.73;7.93;;;9.70;79.50;;;;;;4954964;29;20474;-88